sensor_id;sensor_type;location;lat;lon;timestamp;pressure;altitude;pressure_sealevel;temperature;humidity
54194;BME280;40102;50.906;6.972;2022-09-09T00:00:19;100264.66;;;19.99;62.90
54194;BME280;40102;50.906;6.972;2022-09-09T00:05:42;100260.94;;;19.82;62.89
54194;BME280;40102;50.906;6.972;2022-09-09T00:08:18;100249.03;;;19.75;63.25
54194;BME280;40102;50.906;6.972;2022-09-09T00:10:45;100238.31;;;19.73;62.90
54194;BME280;40102;50.906;6.972;2022-09-09T00:13:32;100247.63;;;19.71;63.75
54194;BME280;40102;50.906;6.972;2022-09-09T00:16:04;100251.88;;;19.73;63.54
54194;BME280;40102;50.906;6.972;2022-09-09T00:21:21;100254.28;;;19.59;64.66
54194;BME280;40102;50.906;6.972;2022-09-09T00:23:51;100248.19;;;19.47;64.85
54194;BME280;40102;50.906;6.972;2022-09-09T00:31:37;100250.88;;;19.57;63.94
54194;BME280;40102;50.906;6.972;2022-09-09T00:34:11;100262.28;;;19.60;63.44
54194;BME280;40102;50.906;6.972;2022-09-09T00:36:38;100244.78;;;19.45;63.26
54194;BME280;40102;50.906;6.972;2022-09-09T00:39:04;100244.56;;;19.38;63.47
54194;BME280;40102;50.906;6.972;2022-09-09T00:41:51;100257.66;;;19.43;63.26
54194;BME280;40102;50.906;6.972;2022-09-09T00:44:30;100250.50;;;19.52;63.06
54194;BME280;40102;50.906;6.972;2022-09-09T00:52:39;100255.69;;;19.63;62.36
54194;BME280;40102;50.906;6.972;2022-09-09T00:57:52;100239.91;;;19.31;63.60
54194;BME280;40102;50.906;6.972;2022-09-09T01:03:19;100259.09;;;19.20;64.17
54194;BME280;40102;50.906;6.972;2022-09-09T01:11:10;100245.06;;;19.24;63.80
54194;BME280;40102;50.906;6.972;2022-09-09T01:13:41;100248.09;;;19.21;64.22
54194;BME280;40102;50.906;6.972;2022-09-09T01:16:09;100248.84;;;19.14;64.59
54194;BME280;40102;50.906;6.972;2022-09-09T01:18:44;100251.75;;;19.02;65.51
54194;BME280;40102;50.906;6.972;2022-09-09T01:26:45;100244.22;;;18.69;67.04
54194;BME280;40102;50.906;6.972;2022-09-09T01:29:16;100244.53;;;18.56;67.58
54194;BME280;40102;50.906;6.972;2022-09-09T01:34:22;100239.84;;;18.49;67.23
54194;BME280;40102;50.906;6.972;2022-09-09T01:37:04;100245.56;;;18.45;67.95
54194;BME280;40102;50.906;6.972;2022-09-09T01:39:31;100248.69;;;18.41;68.06
54194;BME280;40102;50.906;6.972;2022-09-09T01:41:57;100231.91;;;18.28;68.41
54194;BME280;40102;50.906;6.972;2022-09-09T01:44:24;100243.75;;;18.27;68.43
54194;BME280;40102;50.906;6.972;2022-09-09T01:46:50;100246.03;;;18.31;68.25
54194;BME280;40102;50.906;6.972;2022-09-09T01:49:16;100255.25;;;18.38;67.83
54194;BME280;40102;50.906;6.972;2022-09-09T01:51:43;100257.50;;;18.53;67.17
54194;BME280;40102;50.906;6.972;2022-09-09T01:54:09;100256.22;;;18.57;66.63
54194;BME280;40102;50.906;6.972;2022-09-09T01:56:43;100250.53;;;18.50;67.33
54194;BME280;40102;50.906;6.972;2022-09-09T02:04:54;100250.72;;;18.29;68.81
54194;BME280;40102;50.906;6.972;2022-09-09T02:10:18;100241.50;;;18.03;70.12
54194;BME280;40102;50.906;6.972;2022-09-09T02:12:48;100252.22;;;17.95;71.24
54194;BME280;40102;50.906;6.972;2022-09-09T02:15:21;100248.78;;;17.83;71.93
54194;BME280;40102;50.906;6.972;2022-09-09T02:17:50;100252.94;;;17.77;72.18
54194;BME280;40102;50.906;6.972;2022-09-09T02:20:18;100266.03;;;17.82;72.67
54194;BME280;40102;50.906;6.972;2022-09-09T02:22:45;100233.41;;;17.84;71.69
54194;BME280;40102;50.906;6.972;2022-09-09T02:25:15;100244.09;;;17.95;70.79
54194;BME280;40102;50.906;6.972;2022-09-09T02:27:43;100248.19;;;18.08;70.74
54194;BME280;40102;50.906;6.972;2022-09-09T02:30:11;100242.78;;;18.08;69.95
54194;BME280;40102;50.906;6.972;2022-09-09T02:32:38;100241.78;;;18.19;69.71
54194;BME280;40102;50.906;6.972;2022-09-09T02:35:15;100252.03;;;18.25;69.62
54194;BME280;40102;50.906;6.972;2022-09-09T02:37:42;100233.94;;;18.16;69.63
54194;BME280;40102;50.906;6.972;2022-09-09T02:40:12;100246.22;;;18.10;70.39
54194;BME280;40102;50.906;6.972;2022-09-09T02:42:41;100236.81;;;17.95;71.35
54194;BME280;40102;50.906;6.972;2022-09-09T02:45:08;100241.81;;;17.80;72.43
54194;BME280;40102;50.906;6.972;2022-09-09T02:47:34;100248.66;;;17.75;73.22
54194;BME280;40102;50.906;6.972;2022-09-09T02:50:13;100236.69;;;17.68;73.65
54194;BME280;40102;50.906;6.972;2022-09-09T02:55:41;100236.84;;;17.66;73.37
54194;BME280;40102;50.906;6.972;2022-09-09T02:58:11;100233.13;;;17.77;72.31
54194;BME280;40102;50.906;6.972;2022-09-09T03:00:39;100231.28;;;17.77;72.10
54194;BME280;40102;50.906;6.972;2022-09-09T03:03:06;100238.81;;;17.84;71.98
54194;BME280;40102;50.906;6.972;2022-09-09T03:05:32;100226.44;;;17.81;72.02
54194;BME280;40102;50.906;6.972;2022-09-09T03:07:58;100219.47;;;17.78;72.32
54194;BME280;40102;50.906;6.972;2022-09-09T03:10:23;100223.19;;;17.77;72.24
54194;BME280;40102;50.906;6.972;2022-09-09T03:12:49;100220.03;;;17.72;73.05
54194;BME280;40102;50.906;6.972;2022-09-09T03:15:15;100219.03;;;17.73;72.79
54194;BME280;40102;50.906;6.972;2022-09-09T03:17:41;100220.19;;;17.71;72.44
54194;BME280;40102;50.906;6.972;2022-09-09T03:20:07;100211.38;;;17.69;72.51
54194;BME280;40102;50.906;6.972;2022-09-09T03:22:33;100223.59;;;17.83;71.96
54194;BME280;40102;50.906;6.972;2022-09-09T03:24:59;100215.19;;;17.86;71.36
54194;BME280;40102;50.906;6.972;2022-09-09T03:27:24;100219.75;;;17.85;71.87
54194;BME280;40102;50.906;6.972;2022-09-09T03:29:50;100228.88;;;17.84;72.64
54194;BME280;40102;50.906;6.972;2022-09-09T03:32:17;100230.72;;;17.84;72.25
54194;BME280;40102;50.906;6.972;2022-09-09T03:34:43;100225.44;;;17.82;72.66
54194;BME280;40102;50.906;6.972;2022-09-09T03:37:15;100222.03;;;17.80;72.64
54194;BME280;40102;50.906;6.972;2022-09-09T03:39:44;100216.63;;;17.70;72.63
54194;BME280;40102;50.906;6.972;2022-09-09T03:42:12;100220.03;;;17.72;72.96
54194;BME280;40102;50.906;6.972;2022-09-09T03:44:39;100217.75;;;17.77;72.71
54194;BME280;40102;50.906;6.972;2022-09-09T03:47:05;100223.59;;;17.83;72.45
54194;BME280;40102;50.906;6.972;2022-09-09T03:49:31;100236.41;;;17.90;72.18
54194;BME280;40102;50.906;6.972;2022-09-09T03:51:57;100237.84;;;17.85;72.62
54194;BME280;40102;50.906;6.972;2022-09-09T03:54:24;100231.44;;;17.86;71.94
54194;BME280;40102;50.906;6.972;2022-09-09T03:56:52;100231.28;;;17.87;72.18
54194;BME280;40102;50.906;6.972;2022-09-09T03:59:18;100232.41;;;17.85;72.24
54194;BME280;40102;50.906;6.972;2022-09-09T04:01:43;100225.00;;;17.87;72.04
54194;BME280;40102;50.906;6.972;2022-09-09T04:04:10;100226.59;;;17.79;72.51
54194;BME280;40102;50.906;6.972;2022-09-09T04:06:37;100221.91;;;17.72;72.54
54194;BME280;40102;50.906;6.972;2022-09-09T04:09:02;100227.16;;;17.73;73.19
54194;BME280;40102;50.906;6.972;2022-09-09T04:11:28;100228.44;;;17.69;73.52
54194;BME280;40102;50.906;6.972;2022-09-09T04:13:54;100207.19;;;17.65;73.56
54194;BME280;40102;50.906;6.972;2022-09-09T04:16:19;100214.22;;;17.67;73.84
54194;BME280;40102;50.906;6.972;2022-09-09T04:18:46;100217.44;;;17.61;73.97
54194;BME280;40102;50.906;6.972;2022-09-09T04:21:12;100210.22;;;17.71;73.23
54194;BME280;40102;50.906;6.972;2022-09-09T04:23:38;100218.19;;;17.83;72.94
54194;BME280;40102;50.906;6.972;2022-09-09T04:26:04;100213.19;;;17.88;72.12
54194;BME280;40102;50.906;6.972;2022-09-09T04:28:33;100214.91;;;17.89;71.71
54194;BME280;40102;50.906;6.972;2022-09-09T04:31:13;100219.31;;;17.90;71.39
54194;BME280;40102;50.906;6.972;2022-09-09T04:33:39;100218.19;;;17.92;71.18
54194;BME280;40102;50.906;6.972;2022-09-09T04:36:05;100215.44;;;18.02;70.65
54194;BME280;40102;50.906;6.972;2022-09-09T04:38:31;100226.25;;;18.11;70.20
54194;BME280;40102;50.906;6.972;2022-09-09T04:40:56;100224.13;;;18.15;70.13
54194;BME280;40102;50.906;6.972;2022-09-09T04:43:22;100224.25;;;18.23;69.49
54194;BME280;40102;50.906;6.972;2022-09-09T04:45:49;100232.78;;;18.28;69.26
54194;BME280;40102;50.906;6.972;2022-09-09T04:48:15;100226.81;;;18.25;68.84
54194;BME280;40102;50.906;6.972;2022-09-09T04:50:40;100213.28;;;18.25;68.82
54194;BME280;40102;50.906;6.972;2022-09-09T04:53:06;100221.94;;;18.28;68.60
54194;BME280;40102;50.906;6.972;2022-09-09T04:55:32;100232.19;;;18.34;68.91
54194;BME280;40102;50.906;6.972;2022-09-09T04:58:05;100229.38;;;18.26;68.84
54194;BME280;40102;50.906;6.972;2022-09-09T05:00:32;100226.25;;;18.21;68.95
54194;BME280;40102;50.906;6.972;2022-09-09T05:03:02;100228.69;;;18.15;69.10
54194;BME280;40102;50.906;6.972;2022-09-09T05:05:28;100224.13;;;18.05;69.54
54194;BME280;40102;50.906;6.972;2022-09-09T05:07:53;100236.22;;;18.11;71.03
54194;BME280;40102;50.906;6.972;2022-09-09T05:10:18;100224.59;;;17.91;72.72
54194;BME280;40102;50.906;6.972;2022-09-09T05:12:52;100223.88;;;17.79;73.22
54194;BME280;40102;50.906;6.972;2022-09-09T05:15:17;100222.31;;;17.67;74.96
54194;BME280;40102;50.906;6.972;2022-09-09T05:17:43;100220.88;;;17.63;74.94
54194;BME280;40102;50.906;6.972;2022-09-09T05:20:09;100226.84;;;17.47;76.75
54194;BME280;40102;50.906;6.972;2022-09-09T05:22:34;100222.13;;;17.40;76.70
54194;BME280;40102;50.906;6.972;2022-09-09T05:25:00;100220.28;;;17.40;77.63
54194;BME280;40102;50.906;6.972;2022-09-09T05:27:26;100226.13;;;17.36;77.09
54194;BME280;40102;50.906;6.972;2022-09-09T05:29:51;100225.25;;;17.26;77.66
54194;BME280;40102;50.906;6.972;2022-09-09T05:32:17;100234.22;;;17.26;76.52
54194;BME280;40102;50.906;6.972;2022-09-09T05:34:42;100238.91;;;17.34;75.84
54194;BME280;40102;50.906;6.972;2022-09-09T05:37:07;100241.94;;;17.50;75.42
54194;BME280;40102;50.906;6.972;2022-09-09T05:39:33;100236.53;;;17.50;74.85
54194;BME280;40102;50.906;6.972;2022-09-09T05:42:01;100235.53;;;17.51;76.01
54194;BME280;40102;50.906;6.972;2022-09-09T05:44:27;100254.22;;;17.73;74.82
54194;BME280;40102;50.906;6.972;2022-09-09T05:46:53;100235.69;;;17.78;72.44
54194;BME280;40102;50.906;6.972;2022-09-09T05:49:19;100234.41;;;17.83;72.66
54194;BME280;40102;50.906;6.972;2022-09-09T05:51:44;100239.53;;;17.86;72.89
54194;BME280;40102;50.906;6.972;2022-09-09T05:54:10;100241.66;;;17.92;71.53
54194;BME280;40102;50.906;6.972;2022-09-09T05:56:35;100249.91;;;18.09;70.42
54194;BME280;40102;50.906;6.972;2022-09-09T05:59:01;100250.59;;;18.21;69.01
54194;BME280;40102;50.906;6.972;2022-09-09T06:01:31;100245.91;;;18.23;69.02
54194;BME280;40102;50.906;6.972;2022-09-09T06:03:57;100252.44;;;18.30;68.96
54194;BME280;40102;50.906;6.972;2022-09-09T06:06:30;100253.28;;;18.31;68.56
54194;BME280;40102;50.906;6.972;2022-09-09T06:08:57;100246.13;;;18.39;68.76
54194;BME280;40102;50.906;6.972;2022-09-09T06:11:30;100252.13;;;18.43;68.52
54194;BME280;40102;50.906;6.972;2022-09-09T06:13:57;100244.84;;;18.43;68.29
54194;BME280;40102;50.906;6.972;2022-09-09T06:16:24;100243.00;;;18.44;67.92
54194;BME280;40102;50.906;6.972;2022-09-09T06:18:50;100252.13;;;18.43;68.12
54194;BME280;40102;50.906;6.972;2022-09-09T06:21:35;100252.25;;;18.41;68.01
54194;BME280;40102;50.906;6.972;2022-09-09T06:24:04;100255.81;;;18.42;68.34
54194;BME280;40102;50.906;6.972;2022-09-09T06:26:35;100258.25;;;18.45;67.40
54194;BME280;40102;50.906;6.972;2022-09-09T06:29:02;100254.78;;;18.53;66.95
54194;BME280;40102;50.906;6.972;2022-09-09T06:31:30;100252.94;;;18.53;66.55
54194;BME280;40102;50.906;6.972;2022-09-09T06:33:57;100244.53;;;18.56;66.30
54194;BME280;40102;50.906;6.972;2022-09-09T06:36:26;100254.09;;;18.51;66.13
54194;BME280;40102;50.906;6.972;2022-09-09T06:38:52;100240.88;;;18.38;66.61
54194;BME280;40102;50.906;6.972;2022-09-09T06:41:19;100247.13;;;18.38;67.05
54194;BME280;40102;50.906;6.972;2022-09-09T06:43:48;100236.31;;;18.38;66.78
54194;BME280;40102;50.906;6.972;2022-09-09T06:46:17;100238.59;;;18.33;66.78
54194;BME280;40102;50.906;6.972;2022-09-09T06:48:47;100239.59;;;18.32;67.07
54194;BME280;40102;50.906;6.972;2022-09-09T06:51:17;100236.47;;;18.27;66.97
54194;BME280;40102;50.906;6.972;2022-09-09T06:53:44;100233.38;;;18.22;66.94
54194;BME280;40102;50.906;6.972;2022-09-09T06:58:37;100246.59;;;18.35;66.97
54194;BME280;40102;50.906;6.972;2022-09-09T07:01:04;100234.03;;;18.34;66.32
54194;BME280;40102;50.906;6.972;2022-09-09T07:03:30;100234.16;;;18.42;66.48
54194;BME280;40102;50.906;6.972;2022-09-09T07:05:56;100238.44;;;18.44;65.79
54194;BME280;40102;50.906;6.972;2022-09-09T07:08:22;100229.59;;;18.42;65.61
54194;BME280;40102;50.906;6.972;2022-09-09T07:10:47;100231.13;;;18.55;65.04
54194;BME280;40102;50.906;6.972;2022-09-09T07:13:13;100226.31;;;18.49;65.30
54194;BME280;40102;50.906;6.972;2022-09-09T07:15:40;100234.84;;;18.54;64.59
54194;BME280;40102;50.906;6.972;2022-09-09T07:18:06;100234.13;;;18.52;64.82
54194;BME280;40102;50.906;6.972;2022-09-09T07:20:32;100235.09;;;18.60;64.27
54194;BME280;40102;50.906;6.972;2022-09-09T07:22:57;100247.22;;;18.66;63.41
54194;BME280;40102;50.906;6.972;2022-09-09T07:25:23;100240.97;;;18.65;63.23
54194;BME280;40102;50.906;6.972;2022-09-09T07:27:49;100238.25;;;18.65;63.00
54194;BME280;40102;50.906;6.972;2022-09-09T07:30:14;100250.78;;;18.66;63.43
54194;BME280;40102;50.906;6.972;2022-09-09T07:32:39;100252.66;;;18.66;63.64
54194;BME280;40102;50.906;6.972;2022-09-09T07:35:05;100256.88;;;18.78;63.17
54194;BME280;40102;50.906;6.972;2022-09-09T07:37:31;100265.16;;;18.76;63.11
54194;BME280;40102;50.906;6.972;2022-09-09T07:39:56;100262.00;;;18.81;62.58
54194;BME280;40102;50.906;6.972;2022-09-09T07:42:21;100254.56;;;18.83;62.16
54194;BME280;40102;50.906;6.972;2022-09-09T07:44:47;100264.09;;;18.87;61.51
54194;BME280;40102;50.906;6.972;2022-09-09T07:47:12;100266.41;;;18.82;61.08
54194;BME280;40102;50.906;6.972;2022-09-09T07:49:37;100276.66;;;18.88;60.81
54194;BME280;40102;50.906;6.972;2022-09-09T07:52:03;100280.38;;;18.87;60.29
54194;BME280;40102;50.906;6.972;2022-09-09T07:54:28;100280.09;;;18.81;60.49
54194;BME280;40102;50.906;6.972;2022-09-09T07:56:54;100268.56;;;18.79;60.88
54194;BME280;40102;50.906;6.972;2022-09-09T07:59:19;100280.06;;;18.90;60.61
54194;BME280;40102;50.906;6.972;2022-09-09T08:01:47;100269.97;;;18.83;59.64
54194;BME280;40102;50.906;6.972;2022-09-09T08:04:15;100274.09;;;18.87;59.90
54194;BME280;40102;50.906;6.972;2022-09-09T08:06:48;100281.06;;;18.89;59.12
54194;BME280;40102;50.906;6.972;2022-09-09T08:09:15;100281.47;;;18.94;59.51
54194;BME280;40102;50.906;6.972;2022-09-09T08:11:42;100275.34;;;18.92;59.58
54194;BME280;40102;50.906;6.972;2022-09-09T08:14:08;100289.84;;;19.01;59.68
54194;BME280;40102;50.906;6.972;2022-09-09T08:16:37;100284.03;;;18.96;59.77
54194;BME280;40102;50.906;6.972;2022-09-09T08:19:03;100282.88;;;18.98;59.86
54194;BME280;40102;50.906;6.972;2022-09-09T08:21:31;100276.47;;;18.99;59.33
54194;BME280;40102;50.906;6.972;2022-09-09T08:23:59;100282.44;;;19.03;59.45
54194;BME280;40102;50.906;6.972;2022-09-09T08:26:29;100277.88;;;19.03;59.01
54194;BME280;40102;50.906;6.972;2022-09-09T08:28:56;100290.13;;;19.07;58.53
54194;BME280;40102;50.906;6.972;2022-09-09T08:31:24;100273.19;;;18.96;57.08
54194;BME280;40102;50.906;6.972;2022-09-09T08:33:56;100289.72;;;19.02;57.59
54194;BME280;40102;50.906;6.972;2022-09-09T08:36:27;100276.16;;;19.02;57.51
54194;BME280;40102;50.906;6.972;2022-09-09T08:38:55;100278.56;;;19.05;57.61
54194;BME280;40102;50.906;6.972;2022-09-09T08:41:35;100287.09;;;19.11;57.61
54194;BME280;40102;50.906;6.972;2022-09-09T08:44:07;100291.91;;;19.17;57.11
54194;BME280;40102;50.906;6.972;2022-09-09T08:52:27;100283.94;;;19.15;55.74
54194;BME280;40102;50.906;6.972;2022-09-09T08:54:57;100282.22;;;19.14;55.91
54194;BME280;40102;50.906;6.972;2022-09-09T08:57:26;100292.03;;;19.25;55.38
54194;BME280;40102;50.906;6.972;2022-09-09T08:59:56;100290.75;;;19.19;55.54
54194;BME280;40102;50.906;6.972;2022-09-09T09:02:37;100291.31;;;19.23;54.55
54194;BME280;40102;50.906;6.972;2022-09-09T09:08:42;100289.09;;;19.36;55.27
54194;BME280;40102;50.906;6.972;2022-09-09T09:11:09;100297.31;;;19.44;55.56
54194;BME280;40102;50.906;6.972;2022-09-09T09:14:00;100297.03;;;19.47;54.38
54194;BME280;40102;50.906;6.972;2022-09-09T09:16:38;100302.97;;;19.60;55.25
54194;BME280;40102;50.906;6.972;2022-09-09T09:19:04;100287.16;;;19.56;55.03
54194;BME280;40102;50.906;6.972;2022-09-09T09:21:42;100284.75;;;19.53;54.45
54194;BME280;40102;50.906;6.972;2022-09-09T09:24:18;100290.03;;;19.45;54.98
54194;BME280;40102;50.906;6.972;2022-09-09T09:26:44;100299.59;;;19.49;55.11
54194;BME280;40102;50.906;6.972;2022-09-09T09:29:17;100309.34;;;19.41;55.01
54194;BME280;40102;50.906;6.972;2022-09-09T09:31:48;100306.06;;;19.38;55.41
54194;BME280;40102;50.906;6.972;2022-09-09T09:34:17;100298.94;;;19.37;55.86
54194;BME280;40102;50.906;6.972;2022-09-09T09:36:57;100314.59;;;19.43;55.62
54194;BME280;40102;50.906;6.972;2022-09-09T09:39:24;100299.50;;;19.40;55.55
54194;BME280;40102;50.906;6.972;2022-09-09T09:41:50;100319.03;;;19.44;55.29
54194;BME280;40102;50.906;6.972;2022-09-09T09:44:30;100299.25;;;19.34;55.46
54194;BME280;40102;50.906;6.972;2022-09-09T09:47:12;100307.06;;;19.37;56.40
54194;BME280;40102;50.906;6.972;2022-09-09T09:49:51;100307.94;;;19.37;56.13
54194;BME280;40102;50.906;6.972;2022-09-09T09:52:22;100291.41;;;19.31;56.14
54194;BME280;40102;50.906;6.972;2022-09-09T09:54:48;100307.63;;;19.40;56.11
54194;BME280;40102;50.906;6.972;2022-09-09T09:57:15;100302.66;;;19.36;56.03
54194;BME280;40102;50.906;6.972;2022-09-09T09:59:41;100306.22;;;19.36;55.97
54194;BME280;40102;50.906;6.972;2022-09-09T10:05:48;100288.50;;;19.42;55.82
54194;BME280;40102;50.906;6.972;2022-09-09T10:08:14;100293.31;;;19.48;55.56
54194;BME280;40102;50.906;6.972;2022-09-09T10:19:06;100281.06;;;19.44;55.39
54194;BME280;40102;50.906;6.972;2022-09-09T10:21:56;100303.66;;;19.62;53.76
54194;BME280;40102;50.906;6.972;2022-09-09T10:27:18;100304.50;;;19.63;54.76
54194;BME280;40102;50.906;6.972;2022-09-09T10:35:35;100295.53;;;19.62;54.19
54194;BME280;40102;50.906;6.972;2022-09-09T10:38:17;100286.59;;;19.52;54.39
54194;BME280;40102;50.906;6.972;2022-09-09T10:43:56;100302.66;;;19.63;54.19
54194;BME280;40102;50.906;6.972;2022-09-09T10:46:48;100302.34;;;19.66;54.15
54194;BME280;40102;50.906;6.972;2022-09-09T10:56:55;100269.41;;;19.79;52.58
54194;BME280;40102;50.906;6.972;2022-09-09T10:59:26;100282.50;;;19.84;52.68
54194;BME280;40102;50.906;6.972;2022-09-09T11:02:01;100294.69;;;19.80;53.92
54194;BME280;40102;50.906;6.972;2022-09-09T11:07:08;100293.44;;;19.92;53.49
54194;BME280;40102;50.906;6.972;2022-09-09T11:09:40;100270.66;;;19.85;53.75
54194;BME280;40102;50.906;6.972;2022-09-09T11:12:10;100281.41;;;19.94;53.48
54194;BME280;40102;50.906;6.972;2022-09-09T11:14:43;100293.97;;;19.95;53.54
54194;BME280;40102;50.906;6.972;2022-09-09T11:17:15;100282.81;;;19.98;53.04
54194;BME280;40102;50.906;6.972;2022-09-09T11:19:44;100289.63;;;19.85;52.78
54194;BME280;40102;50.906;6.972;2022-09-09T11:22:37;100280.34;;;19.87;52.50
54194;BME280;40102;50.906;6.972;2022-09-09T11:27:50;100281.88;;;19.90;53.13
54194;BME280;40102;50.906;6.972;2022-09-09T11:30:46;100283.34;;;19.84;52.74
54194;BME280;40102;50.906;6.972;2022-09-09T11:33:51;100276.78;;;19.87;52.39
54194;BME280;40102;50.906;6.972;2022-09-09T11:41:48;100268.69;;;19.95;52.67
54194;BME280;40102;50.906;6.972;2022-09-09T11:44:27;100265.84;;;19.96;52.54
54194;BME280;40102;50.906;6.972;2022-09-09T11:46:54;100272.34;;;20.03;51.85
54194;BME280;40102;50.906;6.972;2022-09-09T11:49:40;100259.00;;;20.10;51.46
54194;BME280;40102;50.906;6.972;2022-09-09T11:52:25;100256.28;;;20.10;51.14
54194;BME280;40102;50.906;6.972;2022-09-09T11:55:00;100268.69;;;20.13;51.27
54194;BME280;40102;50.906;6.972;2022-09-09T11:57:35;100241.47;;;20.04;51.38
54194;BME280;40102;50.906;6.972;2022-09-09T12:00:02;100265.03;;;20.04;51.74
54194;BME280;40102;50.906;6.972;2022-09-09T12:02:28;100267.91;;;20.02;51.59
54194;BME280;40102;50.906;6.972;2022-09-09T12:05:07;100257.91;;;20.03;51.19
54194;BME280;40102;50.906;6.972;2022-09-09T12:07:52;100259.00;;;20.10;51.23
54194;BME280;40102;50.906;6.972;2022-09-09T12:10:52;100267.28;;;20.09;51.37
54194;BME280;40102;50.906;6.972;2022-09-09T12:13:20;100266.81;;;20.13;51.74
54194;BME280;40102;50.906;6.972;2022-09-09T12:15:53;100254.25;;;20.12;51.16
54194;BME280;40102;50.906;6.972;2022-09-09T12:18:24;100264.41;;;20.10;51.20
54194;BME280;40102;50.906;6.972;2022-09-09T12:21:26;100261.78;;;20.18;50.94
54194;BME280;40102;50.906;6.972;2022-09-09T12:24:01;100259.38;;;20.15;51.37
54194;BME280;40102;50.906;6.972;2022-09-09T12:26:43;100268.38;;;20.16;51.11
54194;BME280;40102;50.906;6.972;2022-09-09T12:34:41;100269.34;;;20.32;50.58
54194;BME280;40102;50.906;6.972;2022-09-09T12:40:26;100246.38;;;20.27;50.69
54194;BME280;40102;50.906;6.972;2022-09-09T12:42:52;100255.28;;;20.37;50.64
54194;BME280;40102;50.906;6.972;2022-09-09T12:45:19;100248.41;;;20.25;50.54
54194;BME280;40102;50.906;6.972;2022-09-09T12:48:07;100238.34;;;20.17;50.82
54194;BME280;40102;50.906;6.972;2022-09-09T12:50:37;100238.34;;;20.17;51.09
54194;BME280;40102;50.906;6.972;2022-09-09T12:53:07;100247.88;;;20.21;51.36
54194;BME280;40102;50.906;6.972;2022-09-09T12:55:37;100249.56;;;20.22;50.58
54194;BME280;40102;50.906;6.972;2022-09-09T12:58:04;100239.25;;;20.26;51.18
54194;BME280;40102;50.906;6.972;2022-09-09T13:00:32;100224.66;;;20.27;51.05
54194;BME280;40102;50.906;6.972;2022-09-09T13:03:00;100234.97;;;20.41;51.36
54194;BME280;40102;50.906;6.972;2022-09-09T13:05:31;100234.88;;;20.51;51.26
54194;BME280;40102;50.906;6.972;2022-09-09T13:08:08;100224.47;;;20.46;51.07
54194;BME280;40102;50.906;6.972;2022-09-09T13:11:06;100237.94;;;20.56;51.08
54194;BME280;40102;50.906;6.972;2022-09-09T13:13:38;100230.84;;;20.63;50.81
54194;BME280;40102;50.906;6.972;2022-09-09T13:16:05;100222.06;;;20.69;50.48
54194;BME280;40102;50.906;6.972;2022-09-09T13:18:39;100216.00;;;20.91;50.84
54194;BME280;40102;50.906;6.972;2022-09-09T13:21:05;100224.03;;;21.01;50.28
54194;BME280;40102;50.906;6.972;2022-09-09T13:23:36;100225.41;;;21.05;50.22
54194;BME280;40102;50.906;6.972;2022-09-09T13:26:04;100229.66;;;21.08;50.32
54194;BME280;40102;50.906;6.972;2022-09-09T13:28:32;100228.81;;;21.07;50.43
54194;BME280;40102;50.906;6.972;2022-09-09T13:31:06;100227.47;;;21.11;51.11
54194;BME280;40102;50.906;6.972;2022-09-09T13:33:44;100225.63;;;21.20;50.83
54194;BME280;40102;50.906;6.972;2022-09-09T13:36:11;100218.66;;;21.17;50.55
54194;BME280;40102;50.906;6.972;2022-09-09T13:41:05;100211.97;;;21.03;51.46
54194;BME280;40102;50.906;6.972;2022-09-09T13:43:44;100222.09;;;20.85;51.64
54194;BME280;40102;50.906;6.972;2022-09-09T13:48:58;100216.59;;;21.11;51.36
54194;BME280;40102;50.906;6.972;2022-09-09T13:51:44;100232.63;;;21.22;51.18
54194;BME280;40102;50.906;6.972;2022-09-09T13:54:12;100209.38;;;21.36;51.90
54194;BME280;40102;50.906;6.972;2022-09-09T13:56:39;100211.63;;;21.65;50.18
54194;BME280;40102;50.906;6.972;2022-09-09T13:59:10;100196.16;;;21.90;49.53
54194;BME280;40102;50.906;6.972;2022-09-09T14:01:36;100201.41;;;21.91;49.38
54194;BME280;40102;50.906;6.972;2022-09-09T14:04:03;100205.84;;;21.84;49.64
54194;BME280;40102;50.906;6.972;2022-09-09T14:06:29;100206.69;;;21.85;50.16
54194;BME280;40102;50.906;6.972;2022-09-09T14:08:55;100200.56;;;21.66;50.50
54194;BME280;40102;50.906;6.972;2022-09-09T14:11:21;100206.84;;;21.43;50.76
54194;BME280;40102;50.906;6.972;2022-09-09T14:13:47;100199.16;;;21.30;51.41
54194;BME280;40102;50.906;6.972;2022-09-09T14:16:16;100226.69;;;21.27;51.79
54194;BME280;40102;50.906;6.972;2022-09-09T14:18:43;100223.97;;;21.27;52.00
54194;BME280;40102;50.906;6.972;2022-09-09T14:21:09;100222.22;;;21.18;51.92
54194;BME280;40102;50.906;6.972;2022-09-09T14:23:34;100202.13;;;21.02;52.31
54194;BME280;40102;50.906;6.972;2022-09-09T14:26:00;100207.16;;;20.89;52.66
54194;BME280;40102;50.906;6.972;2022-09-09T14:28:25;100201.22;;;20.86;52.85
54194;BME280;40102;50.906;6.972;2022-09-09T14:30:50;100193.75;;;20.88;52.93
54194;BME280;40102;50.906;6.972;2022-09-09T14:33:16;100214.00;;;21.01;52.07
54194;BME280;40102;50.906;6.972;2022-09-09T14:35:42;100206.38;;;21.05;51.80
54194;BME280;40102;50.906;6.972;2022-09-09T14:38:08;100212.63;;;20.97;52.36
54194;BME280;40102;50.906;6.972;2022-09-09T14:40:35;100229.28;;;20.94;52.52
54194;BME280;40102;50.906;6.972;2022-09-09T14:43:01;100239.97;;;20.96;54.00
54194;BME280;40102;50.906;6.972;2022-09-09T14:45:27;100229.94;;;20.88;56.52
54194;BME280;40102;50.906;6.972;2022-09-09T14:47:52;100247.03;;;20.81;57.16
54194;BME280;40102;50.906;6.972;2022-09-09T14:50:19;100245.69;;;20.77;62.76
54194;BME280;40102;50.906;6.972;2022-09-09T14:52:44;100249.56;;;20.66;64.92
54194;BME280;40102;50.906;6.972;2022-09-09T14:55:10;100248.44;;;20.51;66.08
54194;BME280;40102;50.906;6.972;2022-09-09T14:57:36;100250.47;;;20.49;66.31